High Island, Texas
Current Conditions -  °F | °C
As of 3:55 PM on Monday 22 Dec 2014 (Local Time) from KXIH Reporting Station
Overcast Overcast  
Wind Chill: 68°   Ceiling: 800
Heat Index: 68°   Visibility: 10mi
Dew Point: 63°   Wind: 18mph
Humidity: 83%   Direction: 240°WSW
Pressure: 29.65"   Gusts: NA
Location:  29.57°N, 94.39°W
Report Text: KXIH 222155Z AUTO 24016KT 10SM OVC008 20/17 A2965 RMK A01
Loading
Personal Weather Stations






























Interactive Weather Map New forecast layout! Learn more

10-Day Weather Forecast

Advertisements
Track Severe Weather on mobile